Time;durP1;ratioP1;P1;durP2;ratioP2;P2;SDS_P1;SDS_P2;PMS_P1;PMS_P2;Temp;Humidity;BMP_temperature;BMP_pressure;BME280_temperature;BME280_humidity;BME280_pressure;Samples;Min_cycle;Max_cycle;Signal;HPM_P1;HPM_P2
2021/08/08 00:00:45;;;;;;;;;;;;;;;24.69;38.36;100519.75;1743763;81;20188;-44
2021/08/08 00:03:13;;;;;;;;;;;;;;;24.68;38.32;100526.47;1745032;80;20480;-41
2021/08/08 00:05:39;;;;;;;;;;;;;;;24.65;38.28;100526.61;1744249;81;20654;-46
2021/08/08 00:08:06;;;;;;;;;;;;;;;24.62;38.23;100525.90;1740587;81;20187;-43
2021/08/08 00:10:32;;;;;;;;;;;;;;;24.60;38.20;100527.42;1749606;81;21226;-43
2021/08/08 00:12:58;;;;;;;;;;;;;;;24.58;38.17;100529.16;1745426;81;20473;-44
2021/08/08 00:15:24;;;;;;;;;;;;;;;24.56;38.11;100525.93;1735402;81;20205;-46
2021/08/08 00:17:50;;;;;;;;;;;;;;;24.53;38.12;100526.03;1745089;81;20324;-42
2021/08/08 00:20:16;;;;;;;;;;;;;;;24.51;38.14;100522.81;1741836;81;20276;-43
2021/08/08 00:22:42;;;;;;;;;;;;;;;24.51;38.10;100519.22;1738758;81;21118;-42
2021/08/08 00:25:10;;;;;;;;;;;;;;;24.48;38.06;100522.13;1736683;80;20489;-42
2021/08/08 00:27:37;;;;;;;;;;;;;;;24.48;38.05;100514.36;1739953;80;20765;-42
2021/08/08 00:30:05;;;;;;;;;;;;;;;24.46;38.00;100520.84;1742342;80;20204;-44
2021/08/08 00:32:31;;;;;;;;;;;;;;;24.45;37.99;100521.42;1743684;80;20237;-42
2021/08/08 00:34:57;;;;;;;;;;;;;;;24.43;37.94;100530.70;1742257;80;23271;-47
2021/08/08 00:37:22;;;;;;;;;;;;;;;24.41;37.93;100527.45;1741140;80;20260;-43
2021/08/08 00:39:48;;;;;;;;;;;;;;;24.40;37.90;100531.99;1737288;80;20262;-43
2021/08/08 00:42:14;;;;;;;;;;;;;;;24.38;37.87;100530.94;1741479;80;20808;-43
2021/08/08 00:44:40;;;;;;;;;;;;;;;24.38;37.87;100528.73;1734311;80;20531;-42
2021/08/08 00:47:06;;;;;;;;;;;;;;;24.35;37.82;100533.04;1742374;80;21117;-42
2021/08/08 00:49:33;;;;;;;;;;;;;;;24.34;37.82;100532.80;1746528;80;20180;-43
2021/08/08 00:52:00;;;;;;;;;;;;;;;24.33;37.77;100528.97;1747844;80;20425;-43
2021/08/08 00:54:26;;;;;;;;;;;;;;;24.31;37.74;100529.91;1738052;80;22075;-44
2021/08/08 00:56:52;;;;;;;;;;;;;;;24.31;37.74;100536.86;1748560;80;20266;-44
2021/08/08 00:59:18;;;;;;;;;;;;;;;24.30;37.72;100539.41;1743653;80;21876;-43
2021/08/08 01:01:45;;;;;;;;;;;;;;;24.28;37.70;100538.36;1743737;80;20264;-42
2021/08/08 01:04:14;;;;;;;;;;;;;;;24.28;37.66;100541.14;1738807;80;20144;-42
2021/08/08 01:06:51;;;;;;;;;;;;;;;24.27;37.63;100538.15;1720206;81;20624;-41
2021/08/08 01:09:17;;;;;;;;;;;;;;;24.25;37.58;100539.06;1742903;80;20293;-44
2021/08/08 01:11:43;;;;;;;;;;;;;;;24.24;37.57;100542.18;1739491;80;23199;-42
2021/08/08 01:14:09;;;;;;;;;;;;;;;24.23;37.53;100540.58;1740089;80;21614;-43
2021/08/08 01:16:35;;;;;;;;;;;;;;;24.20;37.53;100542.07;1709210;81;20237;-43
2021/08/08 01:19:01;;;;;;;;;;;;;;;24.19;37.50;100547.39;1718047;81;20111;-43
2021/08/08 01:21:29;;;;;;;;;;;;;;;24.21;37.56;100547.88;1744289;80;20290;-43
2021/08/08 01:23:56;;;;;;;;;;;;;;;24.29;37.62;100551.10;1727061;80;21339;-42
2021/08/08 01:26:24;;;;;;;;;;;;;;;24.38;37.70;100549.02;1716624;82;20444;-43
2021/08/08 01:28:53;;;;;;;;;;;;;;;24.47;37.79;100557.23;1714137;82;20217;-44
2021/08/08 01:31:18;;;;;;;;;;;;;;;24.54;37.82;100556.86;1701557;82;20188;-44
2021/08/08 01:33:44;;;;;;;;;;;;;;;24.61;37.86;100552.12;1716613;82;20249;-43
2021/08/08 01:36:11;;;;;;;;;;;;;;;24.68;37.92;100555.11;1722769;82;21186;-44
2021/08/08 01:38:37;;;;;;;;;;;;;;;24.73;37.94;100552.66;1719492;82;20582;-45
2021/08/08 01:41:03;;;;;;;;;;;;;;;24.79;37.97;100545.67;1715879;82;20204;-46
2021/08/08 01:43:31;;;;;;;;;;;;;;;24.85;38.00;100552.63;1719019;82;20188;-45
2021/08/08 01:46:05;;;;;;;;;;;;;;;24.90;38.03;100550.45;1722976;82;20176;-43
2021/08/08 01:48:32;;;;;;;;;;;;;;;24.96;38.08;100556.55;1716778;82;20411;-43
2021/08/08 01:50:59;;;;;;;;;;;;;;;25.00;38.11;100554.10;1718211;82;20207;-45
2021/08/08 01:53:26;;;;;;;;;;;;;;;25.06;38.14;100552.47;1721328;82;20181;-41
2021/08/08 01:55:52;;;;;;;;;;;;;;;25.09;38.16;100553.95;1716970;82;20884;-43
2021/08/08 01:58:17;;;;;;;;;;;;;;;25.13;38.20;100553.47;1713368;82;20208;-44
2021/08/08 02:00:43;;;;;;;;;;;;;;;25.17;38.24;100550.20;1717865;82;21135;-43
2021/08/08 02:03:09;;;;;;;;;;;;;;;25.21;38.25;100551.11;1721277;82;20216;-42
2021/08/08 02:05:35;;;;;;;;;;;;;;;25.24;38.31;100553.21;1708267;82;20190;-46
2021/08/08 02:08:02;;;;;;;;;;;;;;;25.29;38.34;100554.32;1719688;82;20599;-42
2021/08/08 02:10:28;;;;;;;;;;;;;;;25.32;38.37;100557.81;1712487;82;20597;-45
2021/08/08 02:12:54;;;;;;;;;;;;;;;25.35;38.42;100566.02;1712472;82;20969;-42
2021/08/08 02:15:20;;;;;;;;;;;;;;;25.38;38.47;100561.94;1714789;82;20747;-42
2021/08/08 02:17:46;;;;;;;;;;;;;;;25.41;38.50;100561.25;1716424;81;20183;-42
2021/08/08 02:20:15;;;;;;;;;;;;;;;25.44;38.52;100559.13;1714217;82;22051;-43
2021/08/08 02:22:40;;;;;;;;;;;;;;;25.45;38.58;100557.98;1710945;82;20400;-42
2021/08/08 02:25:07;;;;;;;;;;;;;;;25.49;38.60;100566.42;1745770;80;20992;-42
2021/08/08 02:27:33;;;;;;;;;;;;;;;25.51;38.65;100572.44;1748134;80;20178;-43
2021/08/08 02:29:59;;;;;;;;;;;;;;;25.54;38.67;100573.75;1749657;80;20208;-43
2021/08/08 02:32:25;;;;;;;;;;;;;;;25.56;38.72;100581.96;1744752;80;20203;-43
2021/08/08 02:34:51;;;;;;;;;;;;;;;25.59;38.76;100584.02;1748386;80;20214;-42
2021/08/08 02:37:17;;;;;;;;;;;;;;;25.61;38.81;100586.47;1754182;80;21442;-42
2021/08/08 02:39:43;;;;;;;;;;;;;;;25.63;38.84;100586.93;1753113;80;20183;-42
2021/08/08 02:42:09;;;;;;;;;;;;;;;25.64;38.88;100591.31;1745640;80;20195;-42
2021/08/08 02:44:35;;;;;;;;;;;;;;;25.66;38.92;100591.20;1750785;80;20141;-42
2021/08/08 02:47:01;;;;;;;;;;;;;;;25.67;38.96;100586.44;1752531;80;20207;-42
2021/08/08 02:49:26;;;;;;;;;;;;;;;25.70;39.00;100597.67;1753411;80;21152;-42
2021/08/08 02:51:54;;;;;;;;;;;;;;;25.72;39.06;100595.91;1753663;80;20821;-42
2021/08/08 02:54:20;;;;;;;;;;;;;;;25.72;39.08;100596.72;1757647;80;20244;-42
2021/08/08 02:56:47;;;;;;;;;;;;;;;25.74;39.12;100596.37;1757403;80;20670;-43
2021/08/08 02:59:13;;;;;;;;;;;;;;;25.76;39.17;100607.95;1756598;80;20188;-42
2021/08/08 03:01:39;;;;;;;;;;;;;;;25.77;39.21;100606.80;1749701;80;21050;-43
2021/08/08 03:04:05;;;;;;;;;;;;;;;25.79;39.24;100619.80;1745510;80;20270;-41
2021/08/08 03:06:31;;;;;;;;;;;;;;;25.79;39.31;100619.22;1750658;80;21004;-42
2021/08/08 03:08:57;;;;;;;;;;;;;;;25.81;39.33;100619.66;1743108;80;20496;-42
2021/08/08 03:11:23;;;;;;;;;;;;;;;25.82;39.35;100626.05;1755674;80;20196;-42
2021/08/08 03:13:48;;;;;;;;;;;;;;;25.83;39.41;100625.70;1753133;80;21115;-42
2021/08/08 03:16:14;;;;;;;;;;;;;;;25.85;39.45;100624.74;1762149;80;20737;-42
2021/08/08 03:18:40;;;;;;;;;;;;;;;25.86;39.50;100632.52;1750200;80;20179;-43
2021/08/08 03:21:06;;;;;;;;;;;;;;;25.87;39.54;100632.18;1745460;80;22147;-43
2021/08/08 03:23:33;;;;;;;;;;;;;;;25.88;39.58;100634.39;1753017;80;20206;-44
2021/08/08 03:26:00;;;;;;;;;;;;;;;25.89;39.60;100639.58;1762289;80;21228;-43
2021/08/08 03:28:26;;;;;;;;;;;;;;;25.90;39.64;100638.42;1758913;80;20069;-44
2021/08/08 03:30:52;;;;;;;;;;;;;;;25.91;39.68;100641.45;1759460;80;20212;-42
2021/08/08 03:33:18;;;;;;;;;;;;;;;25.91;39.71;100640.05;1757621;80;20283;-42
2021/08/08 03:35:43;;;;;;;;;;;;;;;25.93;39.75;100646.64;1754236;80;20183;-43
2021/08/08 03:38:09;;;;;;;;;;;;;;;25.94;39.78;100652.45;1758377;80;21136;-41
2021/08/08 03:40:35;;;;;;;;;;;;;;;25.95;39.82;100651.29;1765389;80;20374;-43
2021/08/08 03:43:02;;;;;;;;;;;;;;;25.96;39.87;100650.13;1764864;80;20210;-43
2021/08/08 03:45:28;;;;;;;;;;;;;;;25.98;39.92;100659.51;1768442;80;20192;-44
2021/08/08 03:47:54;;;;;;;;;;;;;;;25.98;39.94;100656.72;1766576;80;20140;-42
2021/08/08 03:50:20;;;;;;;;;;;;;;;25.99;39.98;100666.71;1763113;80;21229;-42
2021/08/08 03:52:46;;;;;;;;;;;;;;;26.00;40.00;100668.34;1764604;80;20212;-41
2021/08/08 03:55:12;;;;;;;;;;;;;;;25.99;40.04;100661.95;1765671;80;20643;-43
2021/08/08 03:57:38;;;;;;;;;;;;;;;25.99;40.09;100661.95;1766548;80;20586;-42
2021/08/08 04:00:06;;;;;;;;;;;;;;;26.02;40.11;100660.41;1768931;80;20315;-42
2021/08/08 04:02:32;;;;;;;;;;;;;;;26.02;40.14;100660.41;1762933;80;21118;-42
2021/08/08 04:04:58;;;;;;;;;;;;;;;26.03;40.18;100655.88;1766739;80;20809;-43
2021/08/08 04:07:23;;;;;;;;;;;;;;;26.03;40.22;100657.28;1766531;80;20263;-44
2021/08/08 04:09:49;;;;;;;;;;;;;;;26.04;40.25;100653.33;1768692;79;20214;-42
2021/08/08 04:12:15;;;;;;;;;;;;;;;26.05;40.27;100666.69;1764762;80;20188;-44
2021/08/08 04:14:43;;;;;;;;;;;;;;;26.06;40.32;100668.28;1769282;80;21232;-43
2021/08/08 04:17:09;;;;;;;;;;;;;;;26.05;40.34;100664.72;1767215;80;20141;-42
2021/08/08 04:19:35;;;;;;;;;;;;;;;26.08;40.37;100678.52;1765766;80;20285;-41
2021/08/08 04:22:03;;;;;;;;;;;;;;;26.07;40.43;100679.09;1765682;80;20199;-43
2021/08/08 04:24:30;;;;;;;;;;;;;;;26.08;40.44;100669.56;1762586;80;20236;-45
2021/08/08 04:26:55;;;;;;;;;;;;;;;26.08;40.46;100672.94;1757046;80;21826;-41
2021/08/08 04:29:21;;;;;;;;;;;;;;;26.09;40.50;100671.19;1750035;80;20791;-42
2021/08/08 04:31:47;;;;;;;;;;;;;;;26.10;40.55;100675.58;1750070;80;20256;-43
2021/08/08 04:34:13;;;;;;;;;;;;;;;26.10;40.57;100675.58;1755349;80;20176;-42
2021/08/08 04:36:40;;;;;;;;;;;;;;;26.12;40.60;100683.59;1752584;80;20286;-44
2021/08/08 04:39:06;;;;;;;;;;;;;;;26.11;40.63;100686.16;1750349;80;21187;-41
2021/08/08 04:41:32;;;;;;;;;;;;;;;26.11;40.67;100677.78;1750169;80;20801;-43
2021/08/08 04:43:57;;;;;;;;;;;;;;;26.12;40.69;100674.65;1754541;80;20177;-43
2021/08/08 04:46:23;;;;;;;;;;;;;;;26.13;40.73;100679.64;1753066;80;20300;-43
2021/08/08 04:48:49;;;;;;;;;;;;;;;26.13;40.75;100690.80;1746905;80;20186;-43
2021/08/08 04:51:15;;;;;;;;;;;;;;;26.14;40.76;100681.27;1749376;80;21082;-42
2021/08/08 04:53:41;;;;;;;;;;;;;;;26.14;40.78;100681.27;1754185;80;20796;-45
2021/08/08 04:56:07;;;;;;;;;;;;;;;26.14;40.82;100694.61;1756042;80;20718;-43
2021/08/08 04:58:33;;;;;;;;;;;;;;;26.15;40.85;100693.45;1751726;80;20144;-42
2021/08/08 05:00:59;;;;;;;;;;;;;;;26.15;40.88;100687.86;1753256;80;20189;-43
2021/08/08 05:03:25;;;;;;;;;;;;;;;26.15;40.91;100689.27;1749905;80;21098;-43
2021/08/08 05:05:50;;;;;;;;;;;;;;;26.15;40.94;100689.27;1753450;80;20331;-43
2021/08/08 05:08:16;;;;;;;;;;;;;;;26.16;40.96;100700.65;1753485;80;20405;-45
2021/08/08 05:10:42;;;;;;;;;;;;;;;26.18;40.98;100703.09;1753710;80;20982;-43
2021/08/08 05:13:08;;;;;;;;;;;;;;;26.16;41.01;100699.84;1747846;80;20184;-43
2021/08/08 05:15:34;;;;;;;;;;;;;;;26.18;41.04;100701.70;1752281;80;21161;-42
2021/08/08 05:18:01;;;;;;;;;;;;;;;26.18;41.05;100694.72;1748634;80;20213;-43
2021/08/08 05:20:27;;;;;;;;;;;;;;;26.19;41.09;100698.53;1752517;80;20404;-43
2021/08/08 05:22:53;;;;;;;;;;;;;;;26.19;41.11;100694.92;1755778;80;20746;-43
2021/08/08 05:25:19;;;;;;;;;;;;;;;26.19;41.15;100694.92;1758403;80;20198;-43
2021/08/08 05:27:45;;;;;;;;;;;;;;;26.19;41.18;100688.77;1762322;80;21826;-43
2021/08/08 05:30:12;;;;;;;;;;;;;;;26.20;41.18;100696.00;1754912;80;20255;-42
2021/08/08 05:32:38;;;;;;;;;;;;;;;26.20;41.21;100693.22;1757435;80;20411;-42
2021/08/08 05:35:05;;;;;;;;;;;;;;;26.20;41.24;100691.01;1758150;80;20663;-44
2021/08/08 05:37:31;;;;;;;;;;;;;;;26.17;41.26;100688.33;1754767;80;20452;-42
2021/08/08 05:40:04;;;;;;;;;;;;;;;26.22;41.27;100691.47;1721324;81;21113;-43
2021/08/08 05:42:25;;;;;;;;;;;;;;;26.21;41.29;100689.84;1712243;81;20232;-43
2021/08/08 05:44:51;;;;;;;;;;;;;;;26.22;41.34;100702.63;1753140;80;20164;-42
2021/08/08 05:47:17;;;;;;;;;;;;;;;26.22;41.35;100698.45;1755809;80;20407;-42
2021/08/08 05:49:43;;;;;;;;;;;;;;;26.21;41.36;100696.23;1745023;80;20806;-42
2021/08/08 05:52:09;;;;;;;;;;;;;;;26.23;41.40;100695.28;1750703;80;20431;-44
2021/08/08 05:54:35;;;;;;;;;;;;;;;26.23;41.41;100697.25;1754748;80;20152;-42
2021/08/08 05:57:01;;;;;;;;;;;;;;;26.23;41.45;100691.09;1748290;80;20217;-42
2021/08/08 05:59:27;;;;;;;;;;;;;;;26.23;41.47;100686.91;1757560;79;20182;-42
2021/08/08 06:01:53;;;;;;;;;;;;;;;26.24;41.51;100687.73;1755517;80;20939;-42
2021/08/08 06:04:19;;;;;;;;;;;;;;;26.23;41.53;100682.73;1750522;80;21085;-44
2021/08/08 06:06:45;;;;;;;;;;;;;;;26.24;41.54;100686.33;1746763;80;20359;-43
2021/08/08 06:09:11;;;;;;;;;;;;;;;26.25;41.56;100687.95;1741504;80;20415;-43
2021/08/08 06:11:37;;;;;;;;;;;;;;;26.25;41.58;100690.75;1750039;80;20388;-42
2021/08/08 06:14:04;;;;;;;;;;;;;;;26.25;41.60;100688.77;1722518;81;20185;-42
2021/08/08 06:16:30;;;;;;;;;;;;;;;26.26;41.62;100693.77;1717181;81;21148;-42
2021/08/08 06:18:56;;;;;;;;;;;;;;;26.25;41.64;100686.56;1718242;81;20793;-41
2021/08/08 06:21:21;;;;;;;;;;;;;;;26.26;41.67;100687.61;1757724;80;20271;-43
2021/08/08 06:23:47;;;;;;;;;;;;;;;26.26;41.67;100685.41;1753477;80;20174;-46
2021/08/08 06:26:13;;;;;;;;;;;;;;;26.26;41.70;100678.43;1724606;80;20208;-44
2021/08/08 06:28:39;;;;;;;;;;;;;;;26.27;41.72;100682.81;1713593;82;21073;-43
2021/08/08 06:31:05;;;;;;;;;;;;;;;26.27;41.75;100683.63;1714617;82;20169;-43
2021/08/08 06:33:31;;;;;;;;;;;;;;;26.28;41.77;100684.44;1715602;82;20180;-42
2021/08/08 06:35:57;;;;;;;;;;;;;;;26.27;41.78;100680.03;1716185;82;20230;-43
2021/08/08 06:38:23;;;;;;;;;;;;;;;26.27;41.82;100686.42;1713963;82;20173;-43
2021/08/08 06:40:49;;;;;;;;;;;;;;;26.27;41.84;100679.45;1716074;82;21272;-43
2021/08/08 06:43:15;;;;;;;;;;;;;;;26.29;41.87;100683.28;1717268;82;20227;-44
2021/08/08 06:45:41;;;;;;;;;;;;;;;26.28;41.90;100685.84;1718003;82;20213;-43
2021/08/08 06:48:07;;;;;;;;;;;;;;;26.28;41.90;100691.42;1716209;82;20163;-42
2021/08/08 06:50:33;;;;;;;;;;;;;;;26.28;41.94;100684.44;1713616;82;20474;-43
2021/08/08 06:52:59;;;;;;;;;;;;;;;26.29;41.95;100691.07;1715769;82;20773;-43
2021/08/08 06:55:25;;;;;;;;;;;;;;;26.29;41.96;100691.66;1715004;82;20751;-42
2021/08/08 06:57:51;;;;;;;;;;;;;;;26.29;41.99;100691.66;1715948;82;20573;-42
2021/08/08 07:00:17;;;;;;;;;;;;;;;26.30;42.02;100697.46;1714227;82;20229;-42
2021/08/08 07:02:42;;;;;;;;;;;;;;;26.30;42.02;100701.06;1716984;82;20229;-42
2021/08/08 07:05:09;;;;;;;;;;;;;;;26.30;42.06;100705.25;1714979;82;21109;-42
2021/08/08 07:07:35;;;;;;;;;;;;;;;26.30;42.08;100705.83;1716992;82;20400;-43
2021/08/08 07:10:02;;;;;;;;;;;;;;;26.30;42.11;100706.64;1716208;82;20726;-43
2021/08/08 07:12:28;;;;;;;;;;;;;;;26.30;42.11;100703.86;1715569;82;20171;-44
2021/08/08 07:14:54;;;;;;;;;;;;;;;26.32;42.14;100700.69;1717237;82;20227;-42
2021/08/08 07:17:20;;;;;;;;;;;;;;;26.31;42.14;100694.87;1716058;82;21083;-43
2021/08/08 07:19:46;;;;;;;;;;;;;;;26.32;42.18;100704.28;1717167;82;20178;-43
2021/08/08 07:22:11;;;;;;;;;;;;;;;26.31;42.20;100702.66;1716472;82;20265;-44
2021/08/08 07:24:37;;;;;;;;;;;;;;;26.31;42.22;100704.64;1716641;82;20142;-42
2021/08/08 07:27:04;;;;;;;;;;;;;;;26.33;42.23;100706.50;1751272;80;20836;-42
2021/08/08 07:29:30;;;;;;;;;;;;;;;26.32;42.25;100708.47;1747370;80;21083;-42
2021/08/08 07:31:56;;;;;;;;;;;;;;;26.32;42.27;100707.08;1749777;80;20210;-43
2021/08/08 07:34:22;;;;;;;;;;;;;;;26.34;42.29;100713.70;1748176;80;20200;-44
2021/08/08 07:36:47;;;;;;;;;;;;;;;26.34;42.30;100705.33;1747340;80;20164;-43
2021/08/08 07:39:13;;;;;;;;;;;;;;;26.33;42.31;100715.68;1751794;80;20233;-42
2021/08/08 07:41:39;;;;;;;;;;;;;;;26.34;42.35;100713.12;1747057;80;21102;-43
2021/08/08 07:44:06;;;;;;;;;;;;;;;26.35;42.38;100717.51;1741428;80;20559;-44
2021/08/08 07:46:32;;;;;;;;;;;;;;;26.34;42.38;100708.94;1754608;80;20132;-44
2021/08/08 07:48:57;;;;;;;;;;;;;;;26.35;42.39;100704.95;1740658;80;20144;-42
2021/08/08 07:51:23;;;;;;;;;;;;;;;26.35;42.42;100711.15;1754884;80;20173;-43
2021/08/08 07:53:49;;;;;;;;;;;;;;;26.36;42.42;100708.56;1747510;80;21099;-43
2021/08/08 07:56:15;;;;;;;;;;;;;;;26.36;42.44;100711.34;1750361;80;21496;-43
2021/08/08 07:58:41;;;;;;;;;;;;;;;26.36;42.48;100711.34;1746081;80;20300;-45
2021/08/08 08:01:07;;;;;;;;;;;;;;;26.36;42.48;100710.77;1751491;80;20226;-46
2021/08/08 08:03:33;;;;;;;;;;;;;;;26.37;42.50;100715.77;1752847;80;20186;-44
2021/08/08 08:05:59;;;;;;;;;;;;;;;26.37;42.50;100724.13;1753264;80;20987;-44
2021/08/08 08:08:25;;;;;;;;;;;;;;;26.38;42.54;100719.37;1758287;80;20350;-43
2021/08/08 08:10:51;;;;;;;;;;;;;;;26.38;42.55;100719.37;1750051;80;20196;-44
2021/08/08 08:13:17;;;;;;;;;;;;;;;26.38;42.56;100722.97;1749093;80;20194;-43
2021/08/08 08:15:43;;;;;;;;;;;;;;;26.38;42.59;100717.97;1749667;80;20163;-44
2021/08/08 08:18:09;;;;;;;;;;;;;;;26.39;42.61;100731.58;1746222;80;21179;-43
2021/08/08 08:20:37;;;;;;;;;;;;;;;26.38;42.62;100722.97;1751158;80;21580;-47
2021/08/08 08:23:04;;;;;;;;;;;;;;;26.40;42.62;100733.17;1755274;80;20191;-43
2021/08/08 08:25:30;;;;;;;;;;;;;;;26.40;42.64;100726.20;1755735;80;20462;-43
2021/08/08 08:27:56;;;;;;;;;;;;;;;26.40;42.65;100719.80;1756892;80;20626;-43
2021/08/08 08:30:22;;;;;;;;;;;;;;;26.41;42.67;100722.83;1749843;80;20741;-45
2021/08/08 08:32:48;;;;;;;;;;;;;;;26.42;42.67;100717.48;1752550;80;20249;-45
2021/08/08 08:35:14;;;;;;;;;;;;;;;26.42;42.70;100724.45;1754608;80;20251;-42
2021/08/08 08:37:40;;;;;;;;;;;;;;;26.42;42.72;100725.84;1751593;80;20187;-42
2021/08/08 08:40:07;;;;;;;;;;;;;;;26.42;42.74;100725.84;1748642;80;20180;-43
2021/08/08 08:42:35;;;;;;;;;;;;;;;26.43;42.76;100721.89;1749262;80;21178;-43
2021/08/08 08:45:01;;;;;;;;;;;;;;;26.43;42.78;100719.11;1748485;80;20171;-42
2021/08/08 08:47:28;;;;;;;;;;;;;;;26.43;42.79;100716.31;1750843;80;20190;-42
2021/08/08 08:49:58;;;;;;;;;;;;;;;26.43;42.80;100721.31;1748121;80;20463;-43
2021/08/08 08:52:26;;;;;;;;;;;;;;;26.44;42.84;100718.73;1749294;80;20402;-42
2021/08/08 08:54:52;;;;;;;;;;;;;;;26.44;42.85;100714.55;1749596;80;22134;-43
2021/08/08 08:57:18;;;;;;;;;;;;;;;26.44;42.85;100711.75;1749360;80;20200;-43
2021/08/08 08:59:44;;;;;;;;;;;;;;;26.44;42.89;100709.58;1755380;80;20352;-44
2021/08/08 09:02:10;;;;;;;;;;;;;;;26.44;42.92;100707.56;1749370;80;22197;-41
2021/08/08 09:04:36;;;;;;;;;;;;;;;26.44;42.94;100703.38;1751523;80;20237;-42
2021/08/08 09:07:03;;;;;;;;;;;;;;;26.46;42.95;100700.25;1746543;80;21072;-42
2021/08/08 09:09:31;;;;;;;;;;;;;;;26.46;42.98;100710.02;1747623;80;20421;-41
2021/08/08 09:11:57;;;;;;;;;;;;;;;26.47;42.99;100701.87;1744584;80;20175;-44
2021/08/08 09:14:23;;;;;;;;;;;;;;;26.46;43.00;100699.66;1756124;80;20203;-43
2021/08/08 09:16:52;;;;;;;;;;;;;;;26.48;43.02;100707.69;1753717;80;20486;-42
2021/08/08 09:19:24;;;;;;;;;;;;;;;26.46;43.03;100696.88;1746118;80;21205;-42
2021/08/08 09:21:50;;;;;;;;;;;;;;;26.48;43.06;100700.71;1746511;80;20241;-44
2021/08/08 09:24:31;;;;;;;;;;;;;;;26.47;43.06;100692.92;1751078;80;20476;-43
2021/08/08 09:27:06;;;;;;;;;;;;;;;26.48;43.08;100696.52;1748539;80;20156;-42
2021/08/08 09:29:33;;;;;;;;;;;;;;;26.48;43.11;100693.12;1747696;80;20165;-42
2021/08/08 09:31:59;;;;;;;;;;;;;;;26.50;43.12;100692.77;1739882;80;21141;-42
2021/08/08 09:34:30;;;;;;;;;;;;;;;26.49;43.14;100691.96;1714443;81;20172;-42
2021/08/08 09:36:58;;;;;;;;;;;;;;;26.50;43.15;100683.82;1743655;80;20088;-42
2021/08/08 09:39:32;;;;;;;;;;;;;;;26.50;43.18;100685.80;1740149;80;20165;-45
2021/08/08 09:42:18;;;;;;;;;;;;;;;26.50;43.19;100689.98;1741964;80;20174;-43
2021/08/08 09:44:54;;;;;;;;;;;;;;;26.51;43.19;100695.80;1744876;80;21387;-43
2021/08/08 09:47:20;;;;;;;;;;;;;;;26.51;43.23;100690.22;1745664;80;20526;-45
2021/08/08 09:50:05;;;;;;;;;;;;;;;26.52;43.23;100698.82;1741567;80;20161;-44
2021/08/08 09:52:35;;;;;;;;;;;;;;;26.51;43.25;100691.61;1742628;80;20802;-44
2021/08/08 09:55:03;;;;;;;;;;;;;;;26.52;43.26;100697.42;1742319;80;20398;-42
2021/08/08 09:57:39;;;;;;;;;;;;;;;26.52;43.28;100694.02;1745055;80;21226;-45
2021/08/08 10:00:06;;;;;;;;;;;;;;;26.53;43.30;100687.86;1737845;80;20202;-44
2021/08/08 10:02:32;;;;;;;;;;;;;;;26.53;43.31;100684.48;1742757;80;20440;-42
2021/08/08 10:04:58;;;;;;;;;;;;;;;26.54;43.34;100681.12;1742070;80;20663;-45
2021/08/08 10:07:24;;;;;;;;;;;;;;;26.54;43.37;100686.11;1744398;80;20263;-44
2021/08/08 10:09:49;;;;;;;;;;;;;;;26.55;43.37;100684.14;1713906;82;21289;-43
2021/08/08 10:12:31;;;;;;;;;;;;;;;26.56;43.40;100681.58;1712873;82;20210;-43
2021/08/08 10:14:57;;;;;;;;;;;;;;;26.57;43.42;100681.78;1709548;82;20145;-46
2021/08/08 10:17:26;;;;;;;;;;;;;;;26.59;43.42;100683.05;1711642;82;20160;-44
2021/08/08 10:19:53;;;;;;;;;;;;;;;26.61;43.45;100681.28;1709290;82;20208;-44
2021/08/08 10:22:23;;;;;;;;;;;;;;;26.61;43.44;100675.12;1672091;84;21244;-44
2021/08/08 10:24:49;;;;;;;;;;;;;;;26.63;43.44;100678.38;1720909;82;20184;-46
2021/08/08 10:27:21;;;;;;;;;;;;;;;26.64;43.43;100676.39;1706571;82;20163;-44
2021/08/08 10:29:43;;;;;;;;;;;;;;;26.66;43.42;100679.61;1695811;82;20383;-44
2021/08/08 10:32:09;;;;;;;;;;;;;;;26.67;43.43;100675.66;1693573;82;20242;-42
2021/08/08 10:34:35;;;;;;;;;;;;;;;26.67;43.44;100672.28;1693634;82;21104;-44
2021/08/08 10:37:12;;;;;;;;;;;;;;;26.69;43.43;100677.52;1696449;82;20471;-43
2021/08/08 10:39:40;;;;;;;;;;;;;;;26.70;43.42;100668.77;1710235;82;20166;-44
2021/08/08 10:42:06;;;;;;;;;;;;;;;26.72;43.44;100667.02;1712704;82;20210;-42
2021/08/08 10:44:48;;;;;;;;;;;;;;;26.73;43.43;100670.04;1710012;82;20188;-43
2021/08/08 10:47:27;;;;;;;;;;;;;;;26.74;43.45;100665.47;1707775;82;21171;-43
2021/08/08 10:49:53;;;;;;;;;;;;;;;26.75;43.45;100664.30;1710866;82;20357;-43
2021/08/08 10:52:19;;;;;;;;;;;;;;;26.77;43.45;100666.16;1698281;82;20158;-42
2021/08/08 10:54:47;;;;;;;;;;;;;;;26.77;43.47;100659.18;1699350;83;20678;-42
2021/08/08 10:57:14;;;;;;;;;;;;;;;26.79;43.43;100651.82;1701133;83;20181;-45
2021/08/08 10:59:48;;;;;;;;;;;;;;;26.79;43.47;100658.22;1698035;83;21092;-42
2021/08/08 11:02:16;;;;;;;;;;;;;;;26.81;43.46;100650.30;1695575;83;20148;-43
2021/08/08 11:04:42;;;;;;;;;;;;;;;26.83;43.45;100643.75;1697607;83;20160;-44
2021/08/08 11:07:09;;;;;;;;;;;;;;;26.85;43.45;100644.83;1697447;83;20476;-45
2021/08/08 11:09:37;;;;;;;;;;;;;;;26.86;43.46;100646.45;1697660;83;20613;-44
2021/08/08 11:12:04;;;;;;;;;;;;;;;26.87;43.46;100640.26;1701432;83;21325;-44
2021/08/08 11:14:30;;;;;;;;;;;;;;;26.89;43.46;100642.11;1698443;82;20213;-43
2021/08/08 11:17:06;;;;;;;;;;;;;;;26.90;43.45;100629.20;1698978;83;20395;-43
2021/08/08 11:19:37;;;;;;;;;;;;;;;26.92;43.47;100631.02;1694632;83;22063;-45
2021/08/08 11:22:12;;;;;;;;;;;;;;;26.94;43.46;100626.48;1699697;83;20199;-44
2021/08/08 11:24:39;;;;;;;;;;;;;;;26.95;43.47;100628.88;1695755;83;21163;-44
2021/08/08 11:27:06;;;;;;;;;;;;;;;26.96;43.47;100619.34;1703556;82;21591;-47
2021/08/08 11:29:32;;;;;;;;;;;;;;;26.96;43.46;100620.73;1703907;83;20240;-45
2021/08/08 11:31:59;;;;;;;;;;;;;;;26.99;43.47;100613.02;1706749;83;20147;-44
2021/08/08 11:34:26;;;;;;;;;;;;;;;27.01;43.48;100612.08;1706073;82;20155;-43
2021/08/08 11:36:51;;;;;;;;;;;;;;;27.03;43.47;100608.32;1746288;80;21126;-45
2021/08/08 11:39:17;;;;;;;;;;;;;;;27.05;43.46;100607.38;1751316;80;20794;-44
2021/08/08 11:41:43;;;;;;;;;;;;;;;27.05;43.43;100596.21;1749270;80;20802;-44
2021/08/08 11:44:12;;;;;;;;;;;;;;;27.01;43.18;100591.72;1746197;80;22204;-43
2021/08/08 11:46:41;;;;;;;;;;;;;;;26.93;43.02;100603.91;1750012;80;20209;-44
2021/08/08 11:49:20;;;;;;;;;;;;;;;26.85;42.84;100599.35;1744699;80;22585;-42
2021/08/08 11:51:59;;;;;;;;;;;;;;;26.77;42.74;100588.59;1749310;80;20118;-43
2021/08/08 11:54:26;;;;;;;;;;;;;;;26.71;42.62;100590.03;1748700;80;20231;-45
2021/08/08 11:56:53;;;;;;;;;;;;;;;26.64;42.50;100587.91;1750701;80;20954;-45
2021/08/08 11:59:32;;;;;;;;;;;;;;;26.61;42.41;100590.59;1741531;80;20186;-44
2021/08/08 12:02:05;;;;;;;;;;;;;;;26.55;42.33;100583.11;1749114;80;21211;-44
2021/08/08 12:04:33;;;;;;;;;;;;;;;26.51;42.28;100587.80;1745896;80;20205;-44
2021/08/08 12:06:59;;;;;;;;;;;;;;;26.48;42.26;100591.91;1744439;80;20177;-43
2021/08/08 12:09:25;;;;;;;;;;;;;;;26.45;42.27;100592.61;1752515;80;20442;-43
2021/08/08 12:11:52;;;;;;;;;;;;;;;26.42;42.26;100583.00;1746510;80;20833;-44
2021/08/08 12:14:36;;;;;;;;;;;;;;;26.42;42.29;100583.58;1751219;80;21108;-43
2021/08/08 12:17:13;;;;;;;;;;;;;;;26.40;42.29;100589.51;1754265;80;20201;-44
2021/08/08 12:19:44;;;;;;;;;;;;;;;26.39;42.35;100575.94;1749802;80;20169;-43
2021/08/08 12:22:14;;;;;;;;;;;;;;;26.39;42.36;100581.52;1751056;80;20840;-43
2021/08/08 12:24:43;;;;;;;;;;;;;;;26.40;42.41;100581.72;1745172;80;20202;-44
2021/08/08 12:27:10;;;;;;;;;;;;;;;26.39;42.47;100585.13;1744706;80;21328;-44
2021/08/08 12:29:37;;;;;;;;;;;;;;;26.40;42.53;100585.91;1755751;80;20420;-43
2021/08/08 12:32:12;;;;;;;;;;;;;;;26.41;42.61;100575.80;1756795;80;20355;-43
2021/08/08 12:34:39;;;;;;;;;;;;;;;26.44;42.71;100572.88;1740167;80;22152;-46